Time;durP1;ratioP1;P1;durP2;ratioP2;P2;SDS_P1;SDS_P2;PMS_P1;PMS_P2;Temp;Humidity;BMP_temperature;BMP_pressure;BME280_temperature;BME280_humidity;BME280_pressure;Samples;Min_cycle;Max_cycle;Signal;HPM_P1;HPM_P2
2021/01/04 00:01:20;;;;;;;13.95;11.77;;;1.40;99.90;;;;;;5031812;28;20423;-64
2021/01/04 00:04:09;;;;;;;13.43;11.02;;;1.30;99.90;;;;;;5031777;28;20419;-65
2021/01/04 00:06:57;;;;;;;13.40;11.82;;;1.30;99.90;;;;;;5031457;28;20419;-65
2021/01/04 00:09:41;;;;;;;14.27;11.73;;;1.30;99.90;;;;;;5031896;28;20423;-64
2021/01/04 00:12:12;;;;;;;12.02;10.60;;;1.40;99.90;;;;;;5031845;28;20419;-64
2021/01/04 00:14:50;;;;;;;12.80;11.27;;;1.50;99.90;;;;;;5031524;28;20430;-65
2021/01/04 00:17:30;;;;;;;11.68;10.13;;;1.40;99.90;;;;;;5031680;28;20438;-64
2021/01/04 00:20:06;;;;;;;13.70;11.98;;;1.50;99.90;;;;;;5030845;28;20407;-64
2021/01/04 00:22:39;;;;;;;11.70;10.50;;;1.50;99.90;;;;;;5031666;28;20446;-64
2021/01/04 00:25:17;;;;;;;12.45;11.18;;;1.50;99.90;;;;;;5031165;28;20446;-64
2021/01/04 00:27:48;;;;;;;12.20;10.90;;;1.60;99.90;;;;;;5031517;28;20419;-64
2021/01/04 00:30:19;;;;;;;11.73;10.52;;;1.50;99.90;;;;;;5031636;28;20423;-64
2021/01/04 00:32:47;;;;;;;12.57;10.80;;;1.40;99.90;;;;;;5031504;28;20439;-64
2021/01/04 00:35:17;;;;;;;11.55;10.30;;;1.40;99.10;;;;;;5031160;28;20424;-65
2021/01/04 00:38:26;;;;;;;12.45;11.15;;;1.40;99.90;;;;;;5030884;28;20418;-65
2021/01/04 00:41:11;;;;;;;12.40;11.10;;;1.50;99.90;;;;;;4984453;28;20434;-65
2021/01/04 00:43:43;;;;;;;11.38;10.18;;;1.60;99.90;;;;;;5031020;28;20470;-65
2021/01/04 00:46:12;;;;;;;10.93;9.77;;;1.60;99.90;;;;;;5030807;28;20468;-64
2021/01/04 00:48:43;;;;;;;12.98;10.50;;;1.60;88.30;;;;;;5031047;28;20422;-64
2021/01/04 00:51:20;;;;;;;10.75;9.57;;;1.60;90.80;;;;;;5031236;28;20788;-64
2021/01/04 00:53:49;;;;;;;13.82;10.60;;;1.50;36.60;;;;;;5031142;28;20411;-64
2021/01/04 00:56:43;;;;;;;12.73;11.18;;;1.50;18.70;;;;;;5030767;28;20419;-65
2021/01/04 00:59:21;;;;;;;11.98;10.77;;;1.50;72.90;;;;;;5026957;28;20431;-64
2021/01/04 01:02:13;;;;;;;13.80;11.25;;;1.50;58.00;;;;;;5030589;28;20415;-65
2021/01/04 01:04:46;;;;;;;12.63;10.90;;;1.50;31.00;;;;;;5030609;28;20772;-65
2021/01/04 01:07:15;;;;;;;12.70;11.40;;;1.60;35.70;;;;;;5030943;28;20423;-64
2021/01/04 01:09:45;;;;;;;11.23;10.02;;;1.60;35.80;;;;;;5030815;28;20457;-65
2021/01/04 01:12:24;;;;;;;11.55;10.35;;;1.70;1.00;;;;;;5030913;28;20911;-64
2021/01/04 01:15:07;;;;;;;12.60;10.95;;;1.60;1.00;;;;;;5030518;28;20892;-64
2021/01/04 01:18:14;;;;;;;12.52;11.00;;;1.60;1.00;;;;;;5030693;28;20419;-64
2021/01/04 01:20:50;;;;;;;13.45;10.63;;;1.50;1.00;;;;;;4988970;28;20419;-64
2021/01/04 01:23:17;;;;;;;12.50;11.10;;;1.50;1.00;;;;;;5030751;28;20938;-64
2021/01/04 01:25:48;;;;;;;12.50;10.85;;;1.40;22.60;;;;;;5029980;28;20427;-64
2021/01/04 01:28:40;;;;;;;12.68;11.13;;;1.40;51.60;;;;;;5030871;28;20484;-64
2021/01/04 01:31:23;;;;;;;13.50;12.05;;;1.30;52.70;;;;;;5031327;28;20411;-64
2021/01/04 01:34:13;;;;;;;14.50;12.50;;;1.30;99.90;;;;;;5034557;28;20442;-64
2021/01/04 01:37:01;;;;;;;14.95;12.00;;;1.10;99.90;;;;;;5013362;28;20489;-64
2021/01/04 01:40:02;;;;;;;14.50;12.25;;;1.10;99.90;;;;;;5034649;28;20410;-64
2021/01/04 01:42:46;;;;;;;12.57;11.23;;;1.20;99.90;;;;;;5034348;28;20488;-64
2021/01/04 01:45:18;;;;;;;14.60;12.13;;;1.20;99.90;;;;;;5034281;28;20410;-64
2021/01/04 01:47:51;;;;;;;14.30;12.40;;;1.20;99.90;;;;;;5034406;28;20425;-64
2021/01/04 01:50:29;;;;;;;13.88;12.00;;;1.20;99.90;;;;;;5034371;28;20414;-64
2021/01/04 01:53:03;;;;;;;15.43;13.15;;;1.30;99.90;;;;;;5034599;28;20418;-64
2021/01/04 01:56:13;;;;;;;14.57;12.57;;;1.30;99.90;;;;;;5033921;28;20787;-64
2021/01/04 01:58:57;;;;;;;14.85;11.93;;;1.30;99.90;;;;;;5034454;28;20414;-64
2021/01/04 02:01:34;;;;;;;14.00;12.43;;;1.40;99.90;;;;;;5034161;28;20779;-64
2021/01/04 02:04:04;;;;;;;14.60;12.70;;;1.30;99.90;;;;;;5033609;28;20807;-64
2021/01/04 02:07:03;;;;;;;14.60;12.10;;;1.40;99.90;;;;;;5033977;28;20422;-64
2021/01/04 02:09:34;;;;;;;15.52;11.85;;;1.40;99.90;;;;;;5033888;28;20427;-64
2021/01/04 02:12:09;;;;;;;14.98;13.27;;;1.40;99.90;;;;;;5034271;28;20895;-64
2021/01/04 02:14:49;;;;;;;15.90;13.63;;;1.40;99.90;;;;;;5033526;28;20411;-64
2021/01/04 02:17:29;;;;;;;15.60;12.13;;;1.40;99.90;;;;;;5033889;28;20415;-64
2021/01/04 02:20:37;;;;;;;15.18;12.85;;;1.40;99.90;;;;;;5033497;28;20418;-64
2021/01/04 02:23:17;;;;;;;14.63;12.70;;;1.40;99.90;;;;;;5045479;28;20481;-65
2021/01/04 02:25:48;;;;;;;17.05;12.75;;;1.30;99.90;;;;;;5035698;28;20411;-64
2021/01/04 02:28:18;;;;;;;13.90;11.57;;;1.40;99.90;;;;;;5035248;28;20427;-64
2021/01/04 02:30:44;;;;;;;12.60;10.90;;;1.40;99.90;;;;;;5035435;28;20415;-64
2021/01/04 02:33:12;;;;;;;14.52;11.88;;;1.40;99.90;;;;;;5034216;28;20411;-64
2021/01/04 02:35:40;;;;;;;14.27;12.60;;;1.40;99.90;;;;;;5033362;28;20419;-64
2021/01/04 02:38:07;;;;;;;14.23;11.50;;;1.40;99.90;;;;;;5033275;28;20776;-64
2021/01/04 02:40:33;;;;;;;13.20;11.02;;;1.40;99.90;;;;;;5033356;28;20422;-64
2021/01/04 02:43:00;;;;;;;13.88;11.60;;;1.50;99.90;;;;;;5032528;28;20415;-64
2021/01/04 02:45:30;;;;;;;12.70;11.30;;;1.50;99.90;;;;;;5033517;28;20472;-65
2021/01/04 02:48:13;;;;;;;13.07;11.65;;;1.50;99.90;;;;;;5034931;28;20764;-64
2021/01/04 02:50:46;;;;;;;14.45;11.88;;;1.50;99.90;;;;;;5033141;28;20418;-64
2021/01/04 02:53:37;;;;;;;12.75;10.82;;;1.40;99.90;;;;;;5033117;28;20426;-64
2021/01/04 02:56:12;;;;;;;13.88;11.30;;;1.40;99.90;;;;;;5032267;28;20974;-64
2021/01/04 02:58:57;;;;;;;12.98;11.05;;;1.30;99.90;;;;;;5033346;28;20415;-64
2021/01/04 03:01:32;;;;;;;12.35;11.02;;;1.40;99.90;;;;;;5032863;28;20415;-64
2021/01/04 03:03:59;;;;;;;13.75;11.27;;;1.30;99.90;;;;;;5032658;28;20650;-65
2021/01/04 03:06:37;;;;;;;14.70;11.98;;;1.20;99.90;;;;;;5033220;28;20422;-64
2021/01/04 03:09:06;;;;;;;13.30;11.35;;;1.10;99.90;;;;;;5032957;28;20430;-64
2021/01/04 03:11:33;;;;;;;13.65;10.98;;;1.10;99.90;;;;;;5033083;28;20437;-64
2021/01/04 03:14:05;;;;;;;13.50;11.32;;;1.10;99.90;;;;;;5032659;28;20419;-64
2021/01/04 03:16:39;;;;;;;14.82;11.80;;;1.10;99.90;;;;;;5032922;28;20426;-64
2021/01/04 03:19:09;;;;;;;14.88;12.13;;;1.20;99.90;;;;;;5032767;28;20753;-64
2021/01/04 03:21:36;;;;;;;14.47;12.17;;;1.10;99.90;;;;;;5032640;28;20788;-64
2021/01/04 03:24:06;;;;;;;13.98;11.57;;;1.20;99.90;;;;;;5032427;28;20418;-64
2021/01/04 03:26:40;;;;;;;14.05;11.65;;;1.20;99.90;;;;;;5032151;28;20415;-64
2021/01/04 03:29:07;;;;;;;14.27;11.98;;;1.20;99.90;;;;;;5032691;28;20457;-64
2021/01/04 03:31:33;;;;;;;14.98;13.00;;;1.10;99.90;;;;;;5032499;28;20407;-64
2021/01/04 03:33:59;;;;;;;17.38;13.50;;;1.10;99.90;;;;;;5032732;28;20430;-64
2021/01/04 03:36:26;;;;;;;16.87;13.33;;;1.10;99.90;;;;;;5032457;28;20411;-64
2021/01/04 03:38:52;;;;;;;16.98;13.68;;;1.10;99.90;;;;;;5032143;28;20415;-64
2021/01/04 03:41:19;;;;;;;17.17;13.40;;;1.10;99.90;;;;;;5032537;28;20421;-64
2021/01/04 03:43:45;;;;;;;17.52;13.88;;;1.10;99.90;;;;;;5032268;28;20425;-64
2021/01/04 03:46:12;;;;;;;17.60;13.68;;;1.20;99.90;;;;;;5032319;28;20411;-64
2021/01/04 03:48:39;;;;;;;15.93;13.65;;;1.10;99.90;;;;;;5032132;28;20776;-64
2021/01/04 03:51:05;;;;;;;15.70;13.10;;;1.20;99.90;;;;;;5032028;28;20419;-64
2021/01/04 03:53:31;;;;;;;16.25;13.70;;;1.10;99.90;;;;;;5032010;28;20465;-64
2021/01/04 03:55:57;;;;;;;16.92;14.30;;;1.20;99.90;;;;;;5030826;28;20776;-64
2021/01/04 03:58:23;;;;;;;16.25;13.60;;;1.20;99.90;;;;;;5032189;28;20411;-64
2021/01/04 04:00:49;;;;;;;16.23;13.88;;;1.20;99.90;;;;;;5031840;28;20415;-64
2021/01/04 04:03:16;;;;;;;17.77;14.13;;;1.10;99.90;;;;;;5031720;28;20481;-64
2021/01/04 04:05:42;;;;;;;17.38;13.55;;;1.20;99.90;;;;;;5031507;28;20757;-64
2021/01/04 04:08:08;;;;;;;16.75;13.57;;;1.20;99.90;;;;;;5031215;28;20426;-64
2021/01/04 04:10:34;;;;;;;16.35;13.15;;;1.10;99.90;;;;;;5032080;28;20423;-64
2021/01/04 04:13:00;;;;;;;17.48;13.80;;;1.20;99.90;;;;;;5031955;28;20437;-64
2021/01/04 04:15:26;;;;;;;17.92;13.50;;;1.20;99.90;;;;;;5031423;28;20784;-63
2021/01/04 04:17:53;;;;;;;17.33;13.20;;;1.10;99.90;;;;;;5031137;28;20426;-63
2021/01/04 04:20:21;;;;;;;19.58;14.90;;;1.10;99.90;;;;;;5031511;28;20415;-63
2021/01/04 04:22:49;;;;;;;16.20;13.50;;;1.00;99.90;;;;;;5031228;28;20426;-63
2021/01/04 04:25:17;;;;;;;17.92;14.90;;;1.00;99.90;;;;;;5031179;28;20783;-63
2021/01/04 04:27:44;;;;;;;18.13;14.00;;;1.10;99.90;;;;;;5031871;28;20407;-63
2021/01/04 04:30:13;;;;;;;17.00;13.68;;;1.10;99.90;;;;;;5031415;28;20434;-64
2021/01/04 04:32:40;;;;;;;18.83;13.95;;;1.20;1.00;;;;;;5031738;28;20426;-63
2021/01/04 04:35:07;;;;;;;18.20;14.02;;;1.20;99.90;;;;;;5031210;28;20411;-63
2021/01/04 04:37:34;;;;;;;16.03;12.50;;;1.20;99.90;;;;;;5031212;28;20419;-63
2021/01/04 04:40:01;;;;;;;17.55;13.52;;;1.20;99.90;;;;;;5031471;28;20415;-63
2021/01/04 04:42:27;;;;;;;15.95;13.35;;;1.30;99.90;;;;;;5031154;28;20418;-63
2021/01/04 04:45:00;;;;;;;16.67;13.45;;;1.30;99.90;;;;;;5030709;28;20419;-63
2021/01/04 04:47:38;;;;;;;15.98;13.43;;;1.20;99.90;;;;;;5031242;28;20419;-63
2021/01/04 04:50:29;;;;;;;18.02;13.52;;;1.20;99.90;;;;;;5031110;28;20434;-63
2021/01/04 04:53:09;;;;;;;17.38;13.77;;;1.10;99.90;;;;;;5030849;28;20888;-64
2021/01/04 04:56:02;;;;;;;15.13;12.30;;;1.20;99.90;;;;;;5030657;28;20426;-63
2021/01/04 04:58:39;;;;;;;15.80;13.38;;;1.30;99.90;;;;;;5030977;28;21070;-64
2021/01/04 05:01:13;;;;;;;15.50;13.15;;;1.30;99.90;;;;;;5030643;28;20422;-64
2021/01/04 05:04:03;;;;;;;15.13;12.23;;;1.30;99.90;;;;;;5030894;28;20415;-64
2021/01/04 05:06:41;;;;;;;15.32;12.88;;;1.20;99.90;;;;;;5030064;28;20426;-63
2021/01/04 05:09:30;;;;;;;14.75;11.77;;;1.30;99.90;;;;;;5028378;28;20441;-63
2021/01/04 05:12:09;;;;;;;15.35;12.75;;;1.30;99.90;;;;;;5030871;28;20761;-63
2021/01/04 05:14:43;;;;;;;14.43;12.18;;;1.20;99.90;;;;;;5030028;28;20430;-63
2021/01/04 05:17:27;;;;;;;14.53;12.53;;;1.30;99.90;;;;;;5030454;28;20664;-63
2021/01/04 05:20:22;;;;;;;15.68;13.07;;;1.20;99.90;;;;;;5030134;28;20907;-63
2021/01/04 05:23:17;;;;;;;15.95;12.85;;;1.30;99.90;;;;;;5030573;28;20411;-64
2021/01/04 05:26:19;;;;;;;16.38;13.20;;;1.30;99.90;;;;;;5030295;28;20468;-64
2021/01/04 05:29:20;;;;;;;15.57;12.77;;;1.30;99.90;;;;;;5030691;28;20423;-63
2021/01/04 05:32:02;;;;;;;14.70;11.85;;;1.30;99.90;;;;;;5030199;28;20892;-64
2021/01/04 05:34:36;;;;;;;14.60;12.27;;;1.40;99.90;;;;;;5029681;28;20426;-64
2021/01/04 05:37:28;;;;;;;15.38;13.18;;;1.40;99.90;;;;;;5030180;28;20428;-64
2021/01/04 05:40:18;;;;;;;15.18;12.32;;;1.40;99.90;;;;;;5030221;28;20775;-64
2021/01/04 05:42:56;;;;;;;15.88;13.32;;;1.40;99.90;;;;;;5030452;28;20415;-63
2021/01/04 05:45:29;;;;;;;14.63;12.75;;;1.30;99.90;;;;;;5029614;28;20951;-64
2021/01/04 05:48:03;;;;;;;14.88;12.55;;;1.40;99.90;;;;;;5030453;28;20425;-67
2021/01/04 05:50:38;;;;;;;14.95;12.30;;;1.40;99.90;;;;;;5030365;28;20439;-67
2021/01/04 05:53:04;;;;;;;15.60;13.15;;;1.40;99.90;;;;;;5030688;28;20423;-66
2021/01/04 05:55:30;;;;;;;15.15;13.00;;;1.40;99.90;;;;;;5029861;28;20414;-66
2021/01/04 05:57:57;;;;;;;16.73;12.80;;;1.30;99.90;;;;;;5030270;28;20464;-66
2021/01/04 06:00:29;;;;;;;15.07;12.48;;;1.30;99.90;;;;;;5030305;28;20411;-67
2021/01/04 06:03:07;;;;;;;13.27;11.57;;;1.30;99.90;;;;;;5029864;28;20459;-67
2021/01/04 06:05:33;;;;;;;15.90;12.07;;;1.30;99.90;;;;;;5029974;28;20914;-67
2021/01/04 06:07:59;;;;;;;14.13;11.70;;;1.30;99.90;;;;;;5029969;28;20465;-67
2021/01/04 06:10:31;;;;;;;14.05;11.90;;;1.30;99.90;;;;;;5030176;28;20433;-67
2021/01/04 06:12:57;;;;;;;14.43;12.25;;;1.30;99.90;;;;;;5029852;28;20486;-67
2021/01/04 06:15:31;;;;;;;15.10;11.98;;;1.20;99.90;;;;;;5029719;28;20876;-66
2021/01/04 06:18:02;;;;;;;14.10;11.60;;;1.20;99.90;;;;;;5031109;28;20783;-66
2021/01/04 06:20:51;;;;;;;14.95;12.13;;;1.30;99.90;;;;;;5033559;28;20565;-66
2021/01/04 06:23:21;;;;;;;15.57;12.20;;;1.20;99.90;;;;;;5033948;28;20419;-65
2021/01/04 06:25:54;;;;;;;15.70;12.82;;;1.20;99.90;;;;;;5033281;28;20485;-66
2021/01/04 06:28:20;;;;;;;15.20;11.93;;;1.20;99.90;;;;;;5033683;28;20411;-65
2021/01/04 06:31:00;;;;;;;15.35;12.15;;;1.30;99.90;;;;;;5033848;28;20425;-67
2021/01/04 06:33:29;;;;;;;15.90;12.37;;;1.20;99.90;;;;;;5033872;28;20537;-65
2021/01/04 06:36:05;;;;;;;14.57;12.40;;;1.30;99.90;;;;;;5030157;28;20426;-65
2021/01/04 06:38:33;;;;;;;14.23;12.00;;;1.30;99.90;;;;;;5033720;28;20498;-66
2021/01/04 06:41:10;;;;;;;15.40;12.50;;;1.30;99.90;;;;;;5034420;28;20437;-66
2021/01/04 06:43:38;;;;;;;15.77;11.50;;;1.30;99.90;;;;;;5034181;28;20914;-65
2021/01/04 06:46:32;;;;;;;14.88;11.50;;;1.30;99.90;;;;;;5032884;28;20514;-64
2021/01/04 06:49:03;;;;;;;14.10;12.00;;;1.30;99.90;;;;;;5033908;28;20773;-63
2021/01/04 06:51:46;;;;;;;16.30;13.02;;;1.30;99.90;;;;;;5033195;28;20418;-64
2021/01/04 06:54:53;;;;;;;13.60;11.70;;;1.30;99.90;;;;;;5033415;28;20419;-64
2021/01/04 06:57:38;;;;;;;13.70;11.85;;;1.30;99.90;;;;;;5032765;28;20415;-65
2021/01/04 07:00:18;;;;;;;16.20;12.68;;;1.40;99.90;;;;;;5033217;28;20426;-65
2021/01/04 07:03:18;;;;;;;13.50;11.95;;;1.40;99.90;;;;;;5033042;28;20796;-66
2021/01/04 07:06:02;;;;;;;14.05;11.90;;;1.40;99.90;;;;;;5032681;28;20489;-66
2021/01/04 07:08:56;;;;;;;15.88;13.05;;;1.50;99.90;;;;;;5032259;28;20426;-67
2021/01/04 07:11:39;;;;;;;14.02;11.20;;;1.40;99.90;;;;;;5033498;28;20484;-67
2021/01/04 07:14:34;;;;;;;14.40;12.40;;;1.50;99.90;;;;;;5033380;28;20419;-67
2021/01/04 07:17:19;;;;;;;14.60;11.70;;;1.50;99.90;;;;;;5015352;28;20415;-67
2021/01/04 07:20:06;;;;;;;15.13;12.25;;;1.40;99.90;;;;;;5032395;28;20935;-64
2021/01/04 07:22:44;;;;;;;15.38;11.63;;;1.50;99.90;;;;;;5032411;28;20977;-64
2021/01/04 07:25:21;;;;;;;14.52;12.60;;;1.50;99.90;;;;;;5032629;28;20419;-66
2021/01/04 07:27:54;;;;;;;15.75;12.50;;;1.50;99.90;;;;;;5032298;28;20419;-68
2021/01/04 07:30:41;;;;;;;14.05;11.45;;;1.60;99.90;;;;;;5032990;28;20418;-68
2021/01/04 07:33:19;;;;;;;15.32;12.23;;;1.50;99.90;;;;;;5034810;28;20411;-65
2021/01/04 07:35:54;;;;;;;13.88;11.40;;;1.40;99.90;;;;;;5033106;28;20830;-66
2021/01/04 07:38:30;;;;;;;15.40;12.10;;;1.50;99.90;;;;;;5033499;28;20430;-67
2021/01/04 07:41:21;;;;;;;14.68;12.10;;;1.50;99.90;;;;;;5032783;28;20418;-65
2021/01/04 07:44:16;;;;;;;16.27;12.90;;;1.50;99.90;;;;;;5032720;28;20792;-66
2021/01/04 07:47:12;;;;;;;14.82;12.48;;;1.50;99.90;;;;;;5031416;28;20419;-65
2021/01/04 07:50:21;;;;;;;16.37;12.60;;;1.50;99.90;;;;;;5032349;28;20430;-66
2021/01/04 07:53:23;;;;;;;13.93;11.50;;;1.80;99.90;;;;;;5031861;28;20868;-69
2021/01/04 07:56:14;;;;;;;15.73;13.05;;;2.00;99.90;;;;;;5018065;28;20418;-67
2021/01/04 07:59:18;;;;;;;13.25;11.85;;;2.00;99.90;;;;;;5031819;28;20411;-69
2021/01/04 08:02:24;;;;;;;11.45;10.20;;;2.10;99.90;;;;;;4984985;28;20768;-67
2021/01/04 08:05:39;;;;;;;12.80;10.82;;;2.00;1.00;;;;;;4966748;28;20410;-68
2021/01/04 08:08:27;;;;;;;11.68;10.48;;;1.80;1.00;;;;;;4973465;28;20418;-66
2021/01/04 08:11:36;;;;;;;13.82;11.00;;;1.70;1.00;;;;;;5032047;28;20490;-67
2021/01/04 08:14:34;;;;;;;13.50;12.05;;;1.60;1.00;;;;;;5034562;28;20423;-67
2021/01/04 08:17:05;;;;;;;14.70;12.55;;;1.50;1.00;;;;;;5018129;28;20418;-66
2021/01/04 08:19:35;;;;;;;13.02;10.93;;;1.50;8.30;;;;;;5031186;28;20438;-66
2021/01/04 08:22:12;;;;;;;15.60;12.20;;;1.50;42.30;;;;;;5032184;28;20434;-68
2021/01/04 08:24:42;;;;;;;14.48;12.20;;;1.50;31.20;;;;;;5031265;28;20537;-68
2021/01/04 08:27:19;;;;;;;15.38;12.98;;;1.60;81.40;;;;;;5031355;28;20419;-68
2021/01/04 08:29:54;;;;;;;16.17;11.93;;;1.70;95.30;;;;;;5031369;28;20429;-67
2021/01/04 08:32:24;;;;;;;15.80;12.07;;;1.50;28.80;;;;;;5031720;28;20419;-66
2021/01/04 08:34:51;;;;;;;18.27;12.77;;;1.50;54.70;;;;;;5030913;28;20431;-66
2021/01/04 08:37:31;;;;;;;14.95;12.20;;;1.40;99.70;;;;;;5031491;28;20426;-66
2021/01/04 08:40:12;;;;;;;16.35;12.60;;;1.40;99.90;;;;;;5033250;28;20415;-66
2021/01/04 08:42:39;;;;;;;17.80;12.87;;;1.40;99.90;;;;;;5031334;28;20430;-66
2021/01/04 08:45:10;;;;;;;18.00;13.73;;;1.40;99.90;;;;;;5031572;28;20509;-67
2021/01/04 08:47:45;;;;;;;17.00;13.10;;;1.50;99.90;;;;;;5030712;28;20513;-68
2021/01/04 08:50:34;;;;;;;18.08;13.57;;;1.50;99.90;;;;;;5031119;28;20518;-65
2021/01/04 08:53:20;;;;;;;17.45;13.32;;;1.50;99.90;;;;;;5031364;28;20781;-65
2021/01/04 08:55:47;;;;;;;17.15;13.18;;;1.50;99.90;;;;;;5030155;28;20465;-65
2021/01/04 08:58:25;;;;;;;16.80;12.70;;;1.60;99.90;;;;;;5031275;28;20806;-65
2021/01/04 09:01:05;;;;;;;17.10;13.18;;;1.50;99.90;;;;;;5030897;28;21055;-65
2021/01/04 09:03:34;;;;;;;15.35;12.18;;;1.60;99.90;;;;;;5030878;28;20851;-65
2021/01/04 09:06:12;;;;;;;15.93;12.47;;;1.60;99.90;;;;;;5031507;28;20761;-65
2021/01/04 09:08:47;;;;;;;15.75;12.02;;;1.50;99.90;;;;;;5031169;28;20414;-64
2021/01/04 09:11:15;;;;;;;15.70;12.30;;;1.50;99.90;;;;;;5031310;28;20411;-66
2021/01/04 09:13:42;;;;;;;13.52;11.27;;;1.50;99.90;;;;;;5030874;28;20509;-68
2021/01/04 09:16:11;;;;;;;15.50;11.75;;;1.40;99.90;;;;;;5030287;28;20426;-69
2021/01/04 09:18:42;;;;;;;13.87;11.60;;;1.50;99.90;;;;;;5030739;28;20407;-67
2021/01/04 09:21:28;;;;;;;14.07;10.98;;;1.60;99.90;;;;;;5031966;28;20431;-69
2021/01/04 09:24:06;;;;;;;14.38;11.65;;;1.50;99.90;;;;;;5030970;28;20489;-68
2021/01/04 09:26:37;;;;;;;12.10;9.50;;;1.50;99.90;;;;;;5030445;28;20477;-67
2021/01/04 09:29:16;;;;;;;13.95;10.70;;;1.60;99.90;;;;;;5031134;28;20488;-69
2021/01/04 09:31:48;;;;;;;12.07;10.48;;;1.60;99.90;;;;;;5031984;28;20422;-67
2021/01/04 09:34:16;;;;;;;14.20;10.90;;;1.70;99.90;;;;;;5031202;28;20411;-68
2021/01/04 09:36:43;;;;;;;11.03;9.33;;;1.90;99.90;;;;;;5030490;28;20422;-67
2021/01/04 09:39:12;;;;;;;11.82;9.70;;;1.90;99.90;;;;;;5030488;28;20580;-69
2021/01/04 09:41:40;;;;;;;12.55;10.70;;;1.80;1.00;;;;;;5030564;28;20427;-67
2021/01/04 09:44:09;;;;;;;10.20;8.98;;;1.70;1.00;;;;;;5030785;28;20413;-68
2021/01/04 09:46:43;;;;;;;11.07;8.48;;;1.60;1.00;;;;;;5029994;28;20473;-68
2021/01/04 09:49:15;;;;;;;10.52;8.65;;;1.60;23.40;;;;;;5030737;28;20430;-67
2021/01/04 09:51:46;;;;;;;12.23;9.38;;;1.70;53.40;;;;;;5030482;28;20478;-68
2021/01/04 09:54:15;;;;;;;12.15;9.40;;;1.70;9.00;;;;;;5033172;28;20411;-66
2021/01/04 09:56:42;;;;;;;11.48;8.70;;;1.60;1.00;;;;;;5033793;28;20415;-66
2021/01/04 09:59:11;;;;;;;10.68;8.55;;;1.60;1.00;;;;;;5034696;28;20425;-66
2021/01/04 10:01:44;;;;;;;10.20;8.10;;;1.70;1.00;;;;;;5034326;28;20789;-66
2021/01/04 10:04:11;;;;;;;9.02;7.72;;;1.60;1.00;;;;;;5034009;28;20414;-68
2021/01/04 10:06:40;;;;;;;9.38;8.20;;;1.50;1.00;;;;;;5033615;28;20411;-68
2021/01/04 10:09:14;;;;;;;10.70;8.40;;;1.50;10.20;;;;;;5034117;28;20431;-67
2021/01/04 10:11:44;;;;;;;10.93;8.40;;;1.60;50.50;;;;;;5033390;28;20417;-69
2021/01/04 10:14:14;;;;;;;11.02;8.93;;;1.60;23.30;;;;;;5033971;28;20976;-68
2021/01/04 10:16:44;;;;;;;10.98;9.20;;;1.60;15.30;;;;;;5033391;28;20919;-68
2021/01/04 10:19:16;;;;;;;11.68;9.10;;;1.60;43.00;;;;;;5033811;28;20433;-68
2021/01/04 10:21:51;;;;;;;10.23;8.63;;;1.60;1.00;;;;;;5033864;28;20430;-68
2021/01/04 10:24:22;;;;;;;10.38;8.25;;;1.70;1.00;;;;;;5033731;28;20979;-69
2021/01/04 10:26:51;;;;;;;11.20;8.48;;;1.70;1.00;;;;;;5033392;28;20419;-67
2021/01/04 10:29:20;;;;;;;10.95;9.10;;;1.70;1.00;;;;;;5033526;28;20480;-67
2021/01/04 10:31:47;;;;;;;10.10;8.70;;;1.90;1.00;;;;;;5033902;28;20423;-68
2021/01/04 10:34:16;;;;;;;8.88;7.30;;;1.80;1.00;;;;;;5033914;28;20419;-67
2021/01/04 10:36:56;;;;;;;11.68;8.13;;;1.70;1.00;;;;;;5032841;28;20895;-64
2021/01/04 10:39:31;;;;;;;9.85;7.95;;;1.70;1.00;;;;;;5034075;28;20418;-66
2021/01/04 10:42:05;;;;;;;10.20;8.15;;;1.70;1.00;;;;;;5035283;28;20432;-66
2021/01/04 10:44:32;;;;;;;10.18;8.32;;;1.70;1.00;;;;;;5033827;28;20457;-65
2021/01/04 10:47:02;;;;;;;9.77;7.75;;;1.70;1.00;;;;;;5034819;28;20411;-65
2021/01/04 10:49:30;;;;;;;10.85;8.68;;;1.80;1.00;;;;;;5033587;28;20423;-65
2021/01/04 10:51:57;;;;;;;10.63;8.60;;;1.80;1.00;;;;;;5033444;28;20415;-68
2021/01/04 10:54:36;;;;;;;11.27;9.32;;;1.70;1.00;;;;;;5033732;28;20422;-67
2021/01/04 10:57:13;;;;;;;12.27;9.70;;;1.70;1.00;;;;;;5034206;28;20753;-66
2021/01/04 10:59:42;;;;;;;11.32;8.98;;;1.60;1.00;;;;;;5038395;28;20415;-66
2021/01/04 11:02:08;;;;;;;12.00;9.82;;;1.60;1.00;;;;;;5035796;28;20465;-67
2021/01/04 11:04:36;;;;;;;14.43;10.23;;;1.70;56.50;;;;;;5035016;28;20411;-69
2021/01/04 11:07:07;;;;;;;12.10;9.60;;;1.70;34.30;;;;;;5032002;28;20492;-67
2021/01/04 11:09:36;;;;;;;13.40;9.90;;;1.80;5.90;;;;;;5032926;28;20431;-68
2021/01/04 11:12:09;;;;;;;11.93;9.35;;;1.80;1.00;;;;;;5033009;28;20430;-67
2021/01/04 11:14:37;;;;;;;12.00;9.30;;;1.80;1.00;;;;;;5032676;28;20501;-65
2021/01/04 11:17:19;;;;;;;12.45;9.57;;;1.80;1.00;;;;;;5032256;28;20419;-65
2021/01/04 11:19:46;;;;;;;12.10;9.60;;;1.90;1.00;;;;;;5032720;28;20477;-65
2021/01/04 11:22:27;;;;;;;11.15;8.98;;;1.90;1.00;;;;;;5032597;28;20419;-64
2021/01/04 11:24:54;;;;;;;13.18;10.80;;;2.00;1.00;;;;;;5033594;28;20423;-64
2021/01/04 11:27:22;;;;;;;12.10;9.52;;;2.00;1.00;;;;;;5032587;28;20430;-63
2021/01/04 11:29:49;;;;;;;12.75;10.38;;;1.90;1.00;;;;;;5032727;28;21072;-63
2021/01/04 11:32:17;;;;;;;12.15;9.45;;;2.00;1.00;;;;;;5032925;28;20433;-64
2021/01/04 11:34:45;;;;;;;11.18;8.80;;;2.10;1.00;;;;;;5032746;28;20422;-64
2021/01/04 11:37:12;;;;;;;13.67;10.27;;;2.10;1.00;;;;;;5031994;28;20834;-63
2021/01/04 11:39:38;;;;;;;11.40;9.48;;;2.20;1.00;;;;;;5032478;28;20438;-64
2021/01/04 11:42:05;;;;;;;12.73;10.70;;;2.20;1.00;;;;;;5032419;28;20423;-64
2021/01/04 11:44:32;;;;;;;11.65;9.82;;;2.20;1.00;;;;;;5031822;28;20419;-65
2021/01/04 11:46:58;;;;;;;12.57;10.95;;;2.30;1.00;;;;;;5032188;28;20430;-67
2021/01/04 11:49:24;;;;;;;12.38;10.27;;;2.30;1.00;;;;;;5031987;28;20476;-65
2021/01/04 11:51:51;;;;;;;14.03;11.20;;;2.40;1.00;;;;;;5032216;28;20507;-68
2021/01/04 11:54:19;;;;;;;12.52;10.90;;;2.40;1.00;;;;;;5032612;28;20962;-69
2021/01/04 11:56:45;;;;;;;13.95;11.07;;;2.30;1.00;;;;;;5031685;28;20415;-66
2021/01/04 11:59:12;;;;;;;13.90;11.70;;;2.20;99.90;;;;;;5031983;28;20422;-66
2021/01/04 12:01:40;;;;;;;13.25;11.05;;;2.30;1.00;;;;;;5032102;28;20903;-65
2021/01/04 12:04:07;;;;;;;14.07;10.73;;;2.20;99.90;;;;;;5032255;28;20799;-66
2021/01/04 12:06:33;;;;;;;14.43;11.52;;;2.20;99.90;;;;;;5031487;28;20910;-67
2021/01/04 12:09:00;;;;;;;12.23;10.57;;;2.20;99.90;;;;;;5031203;28;22289;-68
2021/01/04 12:11:31;;;;;;;14.02;11.07;;;2.30;99.90;;;;;;5032153;28;20419;-67
2021/01/04 12:13:57;;;;;;;14.52;12.00;;;2.30;99.90;;;;;;5032309;28;20426;-65
2021/01/04 12:16:23;;;;;;;12.77;11.38;;;2.40;99.90;;;;;;5030605;28;20410;-65
2021/01/04 12:18:50;;;;;;;13.90;11.02;;;2.40;99.90;;;;;;5032085;28;20415;-64
2021/01/04 12:21:21;;;;;;;13.48;11.00;;;2.40;99.90;;;;;;5031988;28;20411;-67
2021/01/04 12:23:47;;;;;;;14.85;11.20;;;2.40;99.90;;;;;;5032456;28;20497;-66
2021/01/04 12:26:13;;;;;;;13.75;10.80;;;2.40;99.90;;;;;;5031502;28;20434;-65
2021/01/04 12:28:39;;;;;;;14.50;11.83;;;2.40;99.90;;;;;;5031424;28;20425;-65
2021/01/04 12:31:05;;;;;;;15.38;11.73;;;2.40;99.90;;;;;;5031838;28;20431;-66
2021/01/04 12:33:32;;;;;;;17.48;13.10;;;2.40;99.90;;;;;;5031365;28;20945;-66
2021/01/04 12:35:58;;;;;;;16.48;13.07;;;2.40;99.90;;;;;;5031290;28;20761;-66
2021/01/04 12:38:25;;;;;;;18.23;14.65;;;2.30;99.90;;;;;;5031391;28;20419;-66
2021/01/04 12:40:51;;;;;;;16.30;13.07;;;2.30;99.90;;;;;;5031704;28;20411;-65
2021/01/04 12:43:17;;;;;;;18.35;13.55;;;2.20;99.90;;;;;;5031938;28;20423;-66
2021/01/04 12:45:44;;;;;;;18.60;14.25;;;2.20;1.00;;;;;;5032725;28;20426;-68
2021/01/04 12:48:10;;;;;;;20.27;15.32;;;2.10;1.00;;;;;;5035022;28;20423;-67
2021/01/04 12:50:36;;;;;;;20.33;15.18;;;2.20;1.00;;;;;;5032336;28;20947;-69
2021/01/04 12:53:03;;;;;;;18.00;14.13;;;2.20;1.00;;;;;;5036948;28;20422;-67
2021/01/04 12:55:29;;;;;;;17.35;13.15;;;2.20;1.00;;;;;;5034005;28;20430;-65
2021/01/04 12:57:56;;;;;;;16.07;12.77;;;2.20;99.90;;;;;;5034627;28;20795;-66
2021/01/04 13:00:23;;;;;;;18.00;14.15;;;2.10;99.90;;;;;;5032238;28;20418;-65
2021/01/04 13:02:50;;;;;;;18.77;14.02;;;2.10;1.00;;;;;;5032015;28;20886;-66
2021/01/04 13:05:16;;;;;;;17.00;13.27;;;2.20;99.90;;;;;;5031887;28;20922;-66
2021/01/04 13:07:42;;;;;;;16.65;13.45;;;2.20;99.90;;;;;;5031686;28;20422;-65
2021/01/04 13:10:11;;;;;;;17.92;13.07;;;2.20;99.90;;;;;;5032803;28;20663;-66
2021/01/04 13:12:37;;;;;;;17.77;13.20;;;2.20;99.90;;;;;;5032296;28;20426;-64
2021/01/04 13:15:05;;;;;;;17.30;14.27;;;2.20;99.90;;;;;;5031662;28;20788;-66
2021/01/04 13:17:31;;;;;;;16.25;13.02;;;2.30;99.90;;;;;;5031334;28;20443;-66
2021/01/04 13:19:58;;;;;;;14.50;12.02;;;2.30;99.90;;;;;;5031482;28;20415;-65